Rock Stream, New York
Current Conditions -  °F | °C
As of 2:09 PM on Monday 22 Dec 2014 (Local Time) from KPEO Reporting Station
Scattered Clouds Scattered Clouds  
Wind Chill: 32°   Ceiling: Unl
Heat Index: 37°   Visibility: 10mi
Dew Point: 25°   Wind: 7mph
Humidity: 62%   Direction: NA
Pressure: 30.12"   Gusts: NA
Location:  42.47°N, 76.93°W
Report Text: KPEO 221909Z AUTO VRB06KT 10SM SCT029 03/M04 A3012 RMK AO2 T00281039
Loading
Personal Weather Stations






























Interactive Weather Map New forecast layout! Learn more

10-Day Weather Forecast

Advertisements
Track Severe Weather on mobile